Ertholm — OVJX — position and weather

sailwx.info

Track history (hours):
 
Tides and Currents Weather Stations Pressure Air Temp Water Temp Dewpoint Dewpoint Depression Visibility Wind Speed Wind Dir Waves Ship Positions

Ertholm

Last reported at 2015-Apr-28 13:33 UTC. Time now 2015-Apr-28 14:28 UTC.
Position N 55°13' E 014°58'.

Length 38 m; draft 2.3 m.

Type: Ship. MMSI: 219000751.

Date/timePositionNaut miles runAvg speedWind from/ knotsBaromVisibWave heightAir tempDewpointWater temp
2015-Apr-28 13:33N 55°13' E 014°58'5 4.7
2015-Apr-28 12:33N 55°16' E 015°04'5 5.2
2015-Apr-28 11:33N 55°19' E 015°11'0 0.0
2015-Apr-28 10:33N 55°19' E 015°11'0 0.0
2015-Apr-28 09:33N 55°19' E 015°11'4 3.8
2015-Apr-28 08:34N 55°17' E 015°06'6 6.0
2015-Apr-28 07:34N 55°13' E 014°58'0 0.0
2015-Apr-28 06:34N 55°13' E 014°58'0 0.0
2015-Apr-28 05:33N 55°13' E 014°58'0 0.0
2015-Apr-28 04:33N 55°13' E 014°58'0 0.0
2015-Apr-28 03:33N 55°13' E 014°58'0 0.0
2015-Apr-28 02:33N 55°13' E 014°58'0 0.0
2015-Apr-28 01:33N 55°13' E 014°58'0 0.0
2015-Apr-28 00:33N 55°13' E 014°58'0 0.0
2015-Apr-27 23:33N 55°13' E 014°58'0 0.0
2015-Apr-27 22:33N 55°13' E 014°58'0 0.0
2015-Apr-27 21:33N 55°13' E 014°58'0 0.0
2015-Apr-27 20:33N 55°13' E 014°58'0 0.0
2015-Apr-27 19:33N 55°13' E 014°58'0 0.0
2015-Apr-27 18:33N 55°13' E 014°58'0 0.0
2015-Apr-27 17:33N 55°13' E 014°58'0 0.0
2015-Apr-27 16:33N 55°13' E 014°58'0 0.0
2015-Apr-27 15:33N 55°13' E 014°58'0 0.0
2015-Apr-27 14:33N 55°13' E 014°58'0 0.0
2015-Apr-27 13:33N 55°13' E 014°58'4 3.6
2015-Apr-27 12:33N 55°15' E 015°03'6 6.1
2015-Apr-27 11:33N 55°19' E 015°11'0 0.0
2015-Apr-27 10:33N 55°19' E 015°11'0 0.0
2015-Apr-27 09:33N 55°19' E 015°11'4 4.1
2015-Apr-27 08:33N 55°17' E 015°06'6 5.7
2015-Apr-27 07:33N 55°13' E 014°58'0 0.0
2015-Apr-27 06:33N 55°13' E 014°58'0 0.0
2015-Apr-27 05:33N 55°13' E 014°58'0 0.0
2015-Apr-27 04:33N 55°13' E 014°58'0 0.0
2015-Apr-27 03:33N 55°13' E 014°58'0 0.0
2015-Apr-27 02:33N 55°13' E 014°58'0 0.0
2015-Apr-27 01:33N 55°13' E 014°58'0 0.0
2015-Apr-27 00:34N 55°13' E 014°58'0 0.0
2015-Apr-26 23:34N 55°13' E 014°58'0 0.0
2015-Apr-26 22:33N 55°13' E 014°58'0 0.0
2015-Apr-26 21:33N 55°13' E 014°58'0 0.0
2015-Apr-26 20:33N 55°13' E 014°58'0 0.0
2015-Apr-26 19:33N 55°13' E 014°58'0 0.0
2015-Apr-26 18:33N 55°13' E 014°58'0 0.0
2015-Apr-26 17:33N 55°13' E 014°58'0 0.0
2015-Apr-26 16:33N 55°13' E 014°58'0 0.0
2015-Apr-26 15:33N 55°13' E 014°58'0 0.0
2015-Apr-26 14:33N 55°13' E 014°58'0 0.0
2015-Apr-26 13:33N 55°13' E 014°58'4 4.3
2015-Apr-26 12:33N 55°16' E 015°04'5 5.5
2015-Apr-26 11:33N 55°19' E 015°11'0 0.0
2015-Apr-26 10:33N 55°19' E 015°11'0 0.0
2015-Apr-26 09:33N 55°19' E 015°11'4 3.7
2015-Apr-26 08:34N 55°17' E 015°06'6 6.0
2015-Apr-26 07:33N 55°13' E 014°58'0 0.0
2015-Apr-26 06:34N 55°13' E 014°58'0 0.0
2015-Apr-26 05:33N 55°13' E 014°58'0 0.0
2015-Apr-26 04:33N 55°13' E 014°58'0 0.0
2015-Apr-26 03:33N 55°13' E 014°58'0 0.0
2015-Apr-26 02:33N 55°13' E 014°58'0 0.0
2015-Apr-26 01:34N 55°13' E 014°58'0 0.0
2015-Apr-26 00:33N 55°13' E 014°58'0 0.0
2015-Apr-25 23:33N 55°13' E 014°58'0 0.0
2015-Apr-25 22:33N 55°13' E 014°58'0 0.0
2015-Apr-25 21:33N 55°13' E 014°58'0 0.0
2015-Apr-25 20:33N 55°13' E 014°58'0 0.0
2015-Apr-25 19:33N 55°13' E 014°58'0 0.0
2015-Apr-25 18:33N 55°13' E 014°58'0 0.0
2015-Apr-25 17:33N 55°13' E 014°58'0 0.0
2015-Apr-25 16:33N 55°13' E 014°58'0 0.0
2015-Apr-25 15:33N 55°13' E 014°58'0 0.0
2015-Apr-25 14:33N 55°13' E 014°58'0 0.0
2015-Apr-25 13:33N 55°13' E 014°58'5 4.5
2015-Apr-25 12:33N 55°16' E 015°04'5 5.3
2015-Apr-25 11:33N 55°19' E 015°11'0 0.0
2015-Apr-25 10:33N 55°19' E 015°11'0 0.0
2015-Apr-25 09:33N 55°19' E 015°11'4 4.0
2015-Apr-25 08:33N 55°17' E 015°06'6 5.9
2015-Apr-25 07:33N 55°13' E 014°58'0 0.0
2015-Apr-25 06:33N 55°13' E 014°58'0 0.0
2015-Apr-25 05:33N 55°13' E 014°58'0 0.0
2015-Apr-25 04:33N 55°13' E 014°58'0 0.0
2015-Apr-25 03:33N 55°13' E 014°58'0 0.0
2015-Apr-25 02:33N 55°13' E 014°58'0 0.0
2015-Apr-25 01:33N 55°13' E 014°58'0 0.0
2015-Apr-25 00:33N 55°13' E 014°58'0 0.0
2015-Apr-24 23:33N 55°13' E 014°58'0 0.0
2015-Apr-24 22:33N 55°13' E 014°58'0 0.0
2015-Apr-24 21:33N 55°13' E 014°58'0 0.0
2015-Apr-24 20:33N 55°13' E 014°58'0 0.0
2015-Apr-24 19:33N 55°13' E 014°58'0 0.0
2015-Apr-24 18:33N 55°13' E 014°58'0 0.0
2015-Apr-24 17:33N 55°13' E 014°58'0 0.0
2015-Apr-24 16:33N 55°13' E 014°58'0 0.0
2015-Apr-24 15:33N 55°13' E 014°58'0 0.0
2015-Apr-24 14:33N 55°13' E 014°58'0 0.0
2015-Apr-24 13:33N 55°13' E 014°58'4 3.7
2015-Apr-24 12:33N 55°15' E 015°03'6 6.1
2015-Apr-24 11:33N 55°19' E 015°11'0 0.0
2015-Apr-24 10:33N 55°19' E 015°11'0 0.0
2015-Apr-24 09:33N 55°19' E 015°11'4 4.0
2015-Apr-24 08:33N 55°18' E 015°05'6 6.2
2015-Apr-24 07:33N 55°13' E 014°58'0 0.0
2015-Apr-24 06:33N 55°13' E 014°58'0 0.0
2015-Apr-24 05:33N 55°13' E 014°58'0 0.0
2015-Apr-24 04:33N 55°13' E 014°58'0 0.0
2015-Apr-24 03:33N 55°13' E 014°58'0 0.0
2015-Apr-24 02:33N 55°13' E 014°58'0 0.0
2015-Apr-24 01:33N 55°13' E 014°58'0 0.0
2015-Apr-24 00:33N 55°13' E 014°58'0 0.0
2015-Apr-23 23:33N 55°13' E 014°58'0 0.0
2015-Apr-23 22:33N 55°13' E 014°58'0 0.0
2015-Apr-23 21:33N 55°13' E 014°58'0 0.0
2015-Apr-23 20:33N 55°13' E 014°58'0 0.0
2015-Apr-23 19:33N 55°13' E 014°58'0 0.0
2015-Apr-23 18:33N 55°13' E 014°58'0 0.0
2015-Apr-23 17:33N 55°13' E 014°58'0 0.0
2015-Apr-23 16:33N 55°13' E 014°58'0 0.0
2015-Apr-23 15:33N 55°13' E 014°58'0 0.0
2015-Apr-23 14:33N 55°13' E 014°58'0 0.0
2015-Apr-23 13:33N 55°13' E 014°58'5 4.6
2015-Apr-23 12:33N 55°15' E 015°05'5 5.5
2015-Apr-23 11:33N 55°19' E 015°11'0 0.0
2015-Apr-23 10:33N 55°19' E 015°11'0 0.0
2015-Apr-23 09:33N 55°19' E 015°11'5 4.6
2015-Apr-23 08:33N 55°18' E 015°04'6 5.8
2015-Apr-23 07:33N 55°13' E 014°58'0 0.0
2015-Apr-23 06:33N 55°13' E 014°58'0 0.0
2015-Apr-23 05:33N 55°13' E 014°58'0 0.0
2015-Apr-23 04:33N 55°13' E 014°58'0 0.0
2015-Apr-23 03:33N 55°13' E 014°58'0 0.0
2015-Apr-23 02:33N 55°13' E 014°58'0 0.0
2015-Apr-23 01:33N 55°13' E 014°58'0 0.0
2015-Apr-23 00:33N 55°13' E 014°58'0 0.0
2015-Apr-22 23:33N 55°13' E 014°58'0 0.0
2015-Apr-22 22:33N 55°13' E 014°58'0 0.0
2015-Apr-22 21:33N 55°13' E 014°58'0 0.0
2015-Apr-22 20:33N 55°13' E 014°58'0 0.0
2015-Apr-22 19:33N 55°13' E 014°58'0 0.0
2015-Apr-22 18:33N 55°13' E 014°58'0 0.0
2015-Apr-22 17:33N 55°13' E 014°58'0 0.0
2015-Apr-22 16:33N 55°13' E 014°58'0 0.0
2015-Apr-22 15:33N 55°13' E 014°58'0 0.0
2015-Apr-22 14:33N 55°13' E 014°58'0 0.0
2015-Apr-22 13:33N 55°13' E 014°58'4 3.9
2015-Apr-22 12:33N 55°15' E 015°03'6 5.9
2015-Apr-22 11:33N 55°19' E 015°11'0 0.0
2015-Apr-22 10:33N 55°19' E 015°11'0 0.0
2015-Apr-22 09:33N 55°19' E 015°11'4 3.8
2015-Apr-22 08:33N 55°17' E 015°06'6 6.0
2015-Apr-22 07:33N 55°13' E 014°58'0 0.0
2015-Apr-22 06:33N 55°13' E 014°58'0 0.0
2015-Apr-22 05:33N 55°13' E 014°58'0 0.0
2015-Apr-22 04:33N 55°13' E 014°58'0 0.0
2015-Apr-22 03:33N 55°13' E 014°58'0 0.0
2015-Apr-22 02:32N 55°13' E 014°58'0 0.0
2015-Apr-22 01:32N 55°13' E 014°58'0 0.0
2015-Apr-22 00:33N 55°13' E 014°58'0 0.0
2015-Apr-21 23:33N 55°13' E 014°58'0 0.0
2015-Apr-21 22:33N 55°13' E 014°58'0 0.0
2015-Apr-21 21:33N 55°13' E 014°58'0 0.0
2015-Apr-21 20:33N 55°13' E 014°58'0 0.0
2015-Apr-21 19:33N 55°13' E 014°58'0 0.0
2015-Apr-21 18:33N 55°13' E 014°58'0 0.0
2015-Apr-21 17:33N 55°13' E 014°58'0 0.0
2015-Apr-21 16:33N 55°13' E 014°58'0 0.0
2015-Apr-21 15:33N 55°13' E 014°58'0 0.0
2015-Apr-21 14:33N 55°13' E 014°58'0 0.0
2015-Apr-21 13:33N 55°13' E 014°58'5 4.7
2015-Apr-21 12:33N 55°16' E 015°04'  
Track history (hours):
 
Tides and Currents Weather Stations Pressure Air Temp Water Temp Dewpoint Dewpoint Depression Visibility Wind Speed Wind Dir Waves Ship Positions

Ertholm

Last reported at 2015-Apr-28 13:33 UTC. Time now 2015-Apr-28 14:28 UTC.
Position N 55°13' E 014°58'.

Length 38 m; draft 2.3 m.

Type: Ship. MMSI: 219000751.

Date/timePositionNaut miles runAvg speedWind from/ knotsBaromVisibWave heightAir tempDewpointWater temp
2015-Apr-28 13:33N 55°13' E 014°58'5 4.7
2015-Apr-28 12:33N 55°16' E 015°04'5 5.2
2015-Apr-28 11:33N 55°19' E 015°11'0 0.0
2015-Apr-28 10:33N 55°19' E 015°11'0 0.0
2015-Apr-28 09:33N 55°19' E 015°11'4 3.8
2015-Apr-28 08:34N 55°17' E 015°06'6 6.0
2015-Apr-28 07:34N 55°13' E 014°58'0 0.0
2015-Apr-28 06:34N 55°13' E 014°58'0 0.0
2015-Apr-28 05:33N 55°13' E 014°58'0 0.0
2015-Apr-28 04:33N 55°13' E 014°58'0 0.0
2015-Apr-28 03:33N 55°13' E 014°58'0 0.0
2015-Apr-28 02:33N 55°13' E 014°58'0 0.0
2015-Apr-28 01:33N 55°13' E 014°58'0 0.0
2015-Apr-28 00:33N 55°13' E 014°58'0 0.0
2015-Apr-27 23:33N 55°13' E 014°58'0 0.0
2015-Apr-27 22:33N 55°13' E 014°58'0 0.0
2015-Apr-27 21:33N 55°13' E 014°58'0 0.0
2015-Apr-27 20:33N 55°13' E 014°58'0 0.0
2015-Apr-27 19:33N 55°13' E 014°58'0 0.0
2015-Apr-27 18:33N 55°13' E 014°58'0 0.0
2015-Apr-27 17:33N 55°13' E 014°58'0 0.0
2015-Apr-27 16:33N 55°13' E 014°58'0 0.0
2015-Apr-27 15:33N 55°13' E 014°58'0 0.0
2015-Apr-27 14:33N 55°13' E 014°58'0 0.0
2015-Apr-27 13:33N 55°13' E 014°58'4 3.6
2015-Apr-27 12:33N 55°15' E 015°03'6 6.1
2015-Apr-27 11:33N 55°19' E 015°11'0 0.0
2015-Apr-27 10:33N 55°19' E 015°11'0 0.0
2015-Apr-27 09:33N 55°19' E 015°11'4 4.1
2015-Apr-27 08:33N 55°17' E 015°06'6 5.7
2015-Apr-27 07:33N 55°13' E 014°58'0 0.0
2015-Apr-27 06:33N 55°13' E 014°58'0 0.0
2015-Apr-27 05:33N 55°13' E 014°58'0 0.0
2015-Apr-27 04:33N 55°13' E 014°58'0 0.0
2015-Apr-27 03:33N 55°13' E 014°58'0 0.0
2015-Apr-27 02:33N 55°13' E 014°58'0 0.0
2015-Apr-27 01:33N 55°13' E 014°58'0 0.0
2015-Apr-27 00:34N 55°13' E 014°58'0 0.0
2015-Apr-26 23:34N 55°13' E 014°58'0 0.0
2015-Apr-26 22:33N 55°13' E 014°58'0 0.0
2015-Apr-26 21:33N 55°13' E 014°58'0 0.0
2015-Apr-26 20:33N 55°13' E 014°58'0 0.0
2015-Apr-26 19:33N 55°13' E 014°58'0 0.0
2015-Apr-26 18:33N 55°13' E 014°58'0 0.0
2015-Apr-26 17:33N 55°13' E 014°58'0 0.0
2015-Apr-26 16:33N 55°13' E 014°58'0 0.0
2015-Apr-26 15:33N 55°13' E 014°58'0 0.0
2015-Apr-26 14:33N 55°13' E 014°58'0 0.0
2015-Apr-26 13:33N 55°13' E 014°58'4 4.3
2015-Apr-26 12:33N 55°16' E 015°04'5 5.5
2015-Apr-26 11:33N 55°19' E 015°11'0 0.0
2015-Apr-26 10:33N 55°19' E 015°11'0 0.0
2015-Apr-26 09:33N 55°19' E 015°11'4 3.7
2015-Apr-26 08:34N 55°17' E 015°06'6 6.0
2015-Apr-26 07:33N 55°13' E 014°58'0 0.0
2015-Apr-26 06:34N 55°13' E 014°58'0 0.0
2015-Apr-26 05:33N 55°13' E 014°58'0 0.0
2015-Apr-26 04:33N 55°13' E 014°58'0 0.0
2015-Apr-26 03:33N 55°13' E 014°58'0 0.0
2015-Apr-26 02:33N 55°13' E 014°58'0 0.0
2015-Apr-26 01:34N 55°13' E 014°58'0 0.0
2015-Apr-26 00:33N 55°13' E 014°58'0 0.0
2015-Apr-25 23:33N 55°13' E 014°58'0 0.0
2015-Apr-25 22:33N 55°13' E 014°58'0 0.0
2015-Apr-25 21:33N 55°13' E 014°58'0 0.0
2015-Apr-25 20:33N 55°13' E 014°58'0 0.0
2015-Apr-25 19:33N 55°13' E 014°58'0 0.0
2015-Apr-25 18:33N 55°13' E 014°58'0 0.0
2015-Apr-25 17:33N 55°13' E 014°58'0 0.0
2015-Apr-25 16:33N 55°13' E 014°58'0 0.0
2015-Apr-25 15:33N 55°13' E 014°58'0 0.0
2015-Apr-25 14:33N 55°13' E 014°58'0 0.0
2015-Apr-25 13:33N 55°13' E 014°58'5 4.5
2015-Apr-25 12:33N 55°16' E 015°04'5 5.3
2015-Apr-25 11:33N 55°19' E 015°11'0 0.0
2015-Apr-25 10:33N 55°19' E 015°11'0 0.0
2015-Apr-25 09:33N 55°19' E 015°11'4 4.0
2015-Apr-25 08:33N 55°17' E 015°06'6 5.9
2015-Apr-25 07:33N 55°13' E 014°58'0 0.0
2015-Apr-25 06:33N 55°13' E 014°58'0 0.0
2015-Apr-25 05:33N 55°13' E 014°58'0 0.0
2015-Apr-25 04:33N 55°13' E 014°58'0 0.0
2015-Apr-25 03:33N 55°13' E 014°58'0 0.0
2015-Apr-25 02:33N 55°13' E 014°58'0 0.0
2015-Apr-25 01:33N 55°13' E 014°58'0 0.0
2015-Apr-25 00:33N 55°13' E 014°58'0 0.0
2015-Apr-24 23:33N 55°13' E 014°58'0 0.0
2015-Apr-24 22:33N 55°13' E 014°58'0 0.0
2015-Apr-24 21:33N 55°13' E 014°58'0 0.0
2015-Apr-24 20:33N 55°13' E 014°58'0 0.0
2015-Apr-24 19:33N 55°13' E 014°58'0 0.0
2015-Apr-24 18:33N 55°13' E 014°58'0 0.0
2015-Apr-24 17:33N 55°13' E 014°58'0 0.0
2015-Apr-24 16:33N 55°13' E 014°58'0 0.0
2015-Apr-24 15:33N 55°13' E 014°58'0 0.0
2015-Apr-24 14:33N 55°13' E 014°58'0 0.0
2015-Apr-24 13:33N 55°13' E 014°58'4 3.7
2015-Apr-24 12:33N 55°15' E 015°03'6 6.1
2015-Apr-24 11:33N 55°19' E 015°11'0 0.0
2015-Apr-24 10:33N 55°19' E 015°11'0 0.0
2015-Apr-24 09:33N 55°19' E 015°11'4 4.0
2015-Apr-24 08:33N 55°18' E 015°05'6 6.2
2015-Apr-24 07:33N 55°13' E 014°58'0 0.0
2015-Apr-24 06:33N 55°13' E 014°58'0 0.0
2015-Apr-24 05:33N 55°13' E 014°58'0 0.0
2015-Apr-24 04:33N 55°13' E 014°58'0 0.0
2015-Apr-24 03:33N 55°13' E 014°58'0 0.0
2015-Apr-24 02:33N 55°13' E 014°58'0 0.0
2015-Apr-24 01:33N 55°13' E 014°58'0 0.0
2015-Apr-24 00:33N 55°13' E 014°58'0 0.0
2015-Apr-23 23:33N 55°13' E 014°58'0 0.0
2015-Apr-23 22:33N 55°13' E 014°58'0 0.0
2015-Apr-23 21:33N 55°13' E 014°58'0 0.0
2015-Apr-23 20:33N 55°13' E 014°58'0 0.0
2015-Apr-23 19:33N 55°13' E 014°58'0 0.0
2015-Apr-23 18:33N 55°13' E 014°58'0 0.0
2015-Apr-23 17:33N 55°13' E 014°58'0 0.0
2015-Apr-23 16:33N 55°13' E 014°58'0 0.0
2015-Apr-23 15:33N 55°13' E 014°58'0 0.0
2015-Apr-23 14:33N 55°13' E 014°58'0 0.0
2015-Apr-23 13:33N 55°13' E 014°58'5 4.6
2015-Apr-23 12:33N 55°15' E 015°05'5 5.5
2015-Apr-23 11:33N 55°19' E 015°11'0 0.0
2015-Apr-23 10:33N 55°19' E 015°11'0 0.0
2015-Apr-23 09:33N 55°19' E 015°11'5 4.6
2015-Apr-23 08:33N 55°18' E 015°04'6 5.8
2015-Apr-23 07:33N 55°13' E 014°58'0 0.0
2015-Apr-23 06:33N 55°13' E 014°58'0 0.0
2015-Apr-23 05:33N 55°13' E 014°58'0 0.0
2015-Apr-23 04:33N 55°13' E 014°58'0 0.0
2015-Apr-23 03:33N 55°13' E 014°58'0 0.0
2015-Apr-23 02:33N 55°13' E 014°58'0 0.0
2015-Apr-23 01:33N 55°13' E 014°58'0 0.0
2015-Apr-23 00:33N 55°13' E 014°58'0 0.0
2015-Apr-22 23:33N 55°13' E 014°58'0 0.0
2015-Apr-22 22:33N 55°13' E 014°58'0 0.0
2015-Apr-22 21:33N 55°13' E 014°58'0 0.0
2015-Apr-22 20:33N 55°13' E 014°58'0 0.0
2015-Apr-22 19:33N 55°13' E 014°58'0 0.0
2015-Apr-22 18:33N 55°13' E 014°58'0 0.0
2015-Apr-22 17:33N 55°13' E 014°58'0 0.0
2015-Apr-22 16:33N 55°13' E 014°58'0 0.0
2015-Apr-22 15:33N 55°13' E 014°58'0 0.0
2015-Apr-22 14:33N 55°13' E 014°58'0 0.0
2015-Apr-22 13:33N 55°13' E 014°58'4 3.9
2015-Apr-22 12:33N 55°15' E 015°03'6 5.9
2015-Apr-22 11:33N 55°19' E 015°11'0 0.0
2015-Apr-22 10:33N 55°19' E 015°11'0 0.0
2015-Apr-22 09:33N 55°19' E 015°11'4 3.8
2015-Apr-22 08:33N 55°17' E 015°06'6 6.0
2015-Apr-22 07:33N 55°13' E 014°58'0 0.0
2015-Apr-22 06:33N 55°13' E 014°58'0 0.0
2015-Apr-22 05:33N 55°13' E 014°58'0 0.0
2015-Apr-22 04:33N 55°13' E 014°58'0 0.0
2015-Apr-22 03:33N 55°13' E 014°58'0 0.0
2015-Apr-22 02:32N 55°13' E 014°58'0 0.0
2015-Apr-22 01:32N 55°13' E 014°58'0 0.0
2015-Apr-22 00:33N 55°13' E 014°58'0 0.0
2015-Apr-21 23:33N 55°13' E 014°58'0 0.0
2015-Apr-21 22:33N 55°13' E 014°58'0 0.0
2015-Apr-21 21:33N 55°13' E 014°58'0 0.0
2015-Apr-21 20:33N 55°13' E 014°58'0 0.0
2015-Apr-21 19:33N 55°13' E 014°58'0 0.0
2015-Apr-21 18:33N 55°13' E 014°58'0 0.0
2015-Apr-21 17:33N 55°13' E 014°58'0 0.0
2015-Apr-21 16:33N 55°13' E 014°58'0 0.0
2015-Apr-21 15:33N 55°13' E 014°58'0 0.0
2015-Apr-21 14:33N 55°13' E 014°58'0 0.0
2015-Apr-21 13:33N 55°13' E 014°58'5 4.7
2015-Apr-21 12:33N 55°16' E 015°04'  

Dump ship's entire track history